Time;durP1;ratioP1;P1;durP2;ratioP2;P2;SDS_P1;SDS_P2;PMS_P1;PMS_P2;Temp;Humidity;BMP_temperature;BMP_pressure;BME280_temperature;BME280_humidity;BME280_pressure;Samples;Min_cycle;Max_cycle;Signal;HPM_P1;HPM_P2
2022/09/21 00:01:16;;;;;;;;;;;5.40;99.90;;;;;;5048017;28;19916;-84
2022/09/21 00:03:42;;;;;;;;;;;5.40;99.90;;;;;;5047639;28;19913;-86
2022/09/21 00:06:09;;;;;;;;;;;5.20;99.90;;;;;;5046988;28;19919;-85
2022/09/21 00:08:35;;;;;;;;;;;5.20;99.90;;;;;;5048432;28;19963;-84
2022/09/21 00:11:00;;;;;;;;;;;5.10;99.90;;;;;;5044438;28;19913;-85
2022/09/21 00:13:27;;;;;;;;;;;5.00;99.90;;;;;;5044609;28;19947;-84
2022/09/21 00:15:55;;;;;;;;;;;4.80;99.90;;;;;;5040463;28;20373;-85
2022/09/21 00:18:22;;;;;;;;;;;4.90;99.90;;;;;;5039856;28;20012;-85
2022/09/21 00:20:47;;;;;;;;;;;4.80;99.90;;;;;;5042544;28;19916;-86
2022/09/21 00:23:13;;;;;;;;;;;5.00;99.90;;;;;;5047081;28;20320;-86
2022/09/21 00:25:39;;;;;;;;;;;4.80;99.90;;;;;;5048030;28;19912;-85
2022/09/21 00:28:04;;;;;;;;;;;4.90;99.90;;;;;;5058065;28;19912;-85
2022/09/21 00:30:30;;;;;;;;;;;4.90;99.90;;;;;;5049656;28;19928;-85
2022/09/21 00:32:55;;;;;;;;;;;4.90;99.90;;;;;;5043901;28;19924;-85
2022/09/21 00:35:21;;;;;;;;;;;4.70;99.90;;;;;;5043063;28;19920;-86
2022/09/21 00:37:47;;;;;;;;;;;4.80;99.90;;;;;;5047768;28;20284;-85
2022/09/21 00:40:12;;;;;;;;;;;4.70;99.90;;;;;;5048760;28;19928;-87
2022/09/21 00:42:38;;;;;;;;;;;4.70;99.90;;;;;;5041783;28;19929;-85
2022/09/21 00:45:04;;;;;;;;;;;4.60;99.90;;;;;;5049920;28;20011;-86
2022/09/21 00:47:39;;;;;;;;;;;4.60;99.90;;;;;;5039280;28;19987;-86
2022/09/21 00:50:06;;;;;;;;;;;4.50;99.90;;;;;;5052006;28;20422;-86
2022/09/21 00:52:34;;;;;;;;;;;4.50;99.90;;;;;;5045130;28;19913;-85
2022/09/21 00:55:02;;;;;;;;;;;4.60;99.90;;;;;;5049951;28;19912;-86
2022/09/21 00:57:34;;;;;;;;;;;4.60;99.90;;;;;;5051345;28;20355;-85
2022/09/21 01:00:00;;;;;;;;;;;4.60;99.90;;;;;;5039673;28;19920;-86
2022/09/21 01:02:27;;;;;;;;;;;4.40;99.90;;;;;;5042368;28;20285;-85
2022/09/21 01:04:53;;;;;;;;;;;4.40;99.90;;;;;;5049837;28;19912;-86
2022/09/21 01:07:21;;;;;;;;;;;4.30;99.90;;;;;;5044660;28;19974;-86
2022/09/21 01:09:48;;;;;;;;;;;4.10;99.90;;;;;;5044346;28;19948;-85
2022/09/21 01:12:32;;;;;;;;;;;4.10;99.90;;;;;;5051821;28;19912;-85
2022/09/21 01:15:37;;;;;;;;;;;4.10;99.90;;;;;;5044688;28;20438;-87
2022/09/21 01:18:06;;;;;;;;;;;4.00;99.90;;;;;;4991462;28;19909;-85
2022/09/21 01:20:32;;;;;;;;;;;4.10;99.90;;;;;;4987422;28;19913;-85
2022/09/21 01:22:57;;;;;;;;;;;3.90;99.90;;;;;;5016572;28;19915;-87
2022/09/21 01:25:26;;;;;;;;;;;4.00;99.90;;;;;;5045457;28;19928;-85
2022/09/21 01:28:00;;;;;;;;;;;4.10;99.90;;;;;;5039088;28;19919;-85
2022/09/21 01:30:28;;;;;;;;;;;4.00;99.90;;;;;;5046787;28;19909;-87
2022/09/21 01:33:14;;;;;;;;;;;4.00;99.90;;;;;;5041769;28;20063;-85
2022/09/21 01:35:43;;;;;;;;;;;4.00;99.90;;;;;;5035640;28;19913;-86
2022/09/21 01:38:30;;;;;;;;;;;4.10;99.90;;;;;;5045299;28;19978;-85
2022/09/21 01:41:01;;;;;;;;;;;4.00;99.90;;;;;;5031596;28;19913;-85
2022/09/21 01:43:32;;;;;;;;;;;4.00;99.90;;;;;;5039981;28;19917;-85
2022/09/21 01:46:00;;;;;;;;;;;3.90;99.90;;;;;;5046926;28;19920;-85
2022/09/21 01:48:29;;;;;;;;;;;3.90;99.90;;;;;;5038745;28;19909;-86
2022/09/21 01:50:56;;;;;;;;;;;3.80;99.90;;;;;;5041805;28;20248;-84
2022/09/21 01:53:24;;;;;;;;;;;3.90;99.90;;;;;;5049127;28;20020;-86
2022/09/21 01:55:52;;;;;;;;;;;3.80;99.90;;;;;;5050632;28;19919;-85
2022/09/21 01:58:18;;;;;;;;;;;3.70;99.90;;;;;;5050507;28;19991;-85
2022/09/21 02:00:46;;;;;;;;;;;3.70;99.90;;;;;;5050016;28;19928;-86
2022/09/21 02:03:15;;;;;;;;;;;3.60;99.90;;;;;;5038389;28;19996;-84
2022/09/21 02:05:41;;;;;;;;;;;3.60;99.90;;;;;;5045987;28;19915;-86
2022/09/21 02:08:07;;;;;;;;;;;3.50;99.90;;;;;;5050450;28;19908;-85
2022/09/21 02:10:34;;;;;;;;;;;3.50;99.90;;;;;;5050147;28;20272;-85
2022/09/21 02:13:01;;;;;;;;;;;3.60;99.90;;;;;;5048646;28;19998;-86
2022/09/21 02:15:31;;;;;;;;;;;3.60;99.90;;;;;;5057887;28;19966;-85
2022/09/21 02:18:10;;;;;;;;;;;3.60;99.90;;;;;;5049943;28;19912;-86
2022/09/21 02:20:39;;;;;;;;;;;3.60;99.90;;;;;;5047872;28;19913;-85
2022/09/21 02:23:10;;;;;;;;;;;3.70;99.90;;;;;;5045081;28;19909;-86
2022/09/21 02:25:43;;;;;;;;;;;3.80;99.90;;;;;;5043766;28;19908;-85
2022/09/21 02:28:28;;;;;;;;;;;3.80;99.90;;;;;;5046674;28;19913;-86
2022/09/21 02:31:01;;;;;;;;;;;3.80;99.90;;;;;;5044123;28;19939;-86
2022/09/21 02:33:56;;;;;;;;;;;3.80;99.90;;;;;;5046113;28;19931;-84
2022/09/21 02:36:34;;;;;;;;;;;3.90;99.90;;;;;;5032317;28;19996;-86
2022/09/21 02:39:05;;;;;;;;;;;3.90;99.90;;;;;;5045165;28;20066;-87
2022/09/21 02:41:45;;;;;;;;;;;4.00;99.90;;;;;;5048148;28;19920;-85
2022/09/21 02:44:14;;;;;;;;;;;3.90;99.90;;;;;;5054227;28;19920;-87
2022/09/21 02:47:05;;;;;;;;;;;3.90;99.90;;;;;;5049496;28;19974;-84
2022/09/21 02:49:33;;;;;;;;;;;3.90;99.90;;;;;;5043275;28;19912;-85
2022/09/21 02:52:04;;;;;;;;;;;3.90;99.90;;;;;;5045307;28;19952;-86
2022/09/21 02:54:30;;;;;;;;;;;3.80;99.90;;;;;;5040451;28;19917;-85
2022/09/21 02:56:57;;;;;;;;;;;3.80;99.90;;;;;;5039348;28;20046;-86
2022/09/21 02:59:22;;;;;;;;;;;3.80;99.90;;;;;;5049549;28;19912;-87
2022/09/21 03:01:48;;;;;;;;;;;3.80;99.90;;;;;;5039555;28;19982;-85
2022/09/21 03:04:15;;;;;;;;;;;3.90;99.90;;;;;;5044674;28;19909;-85
2022/09/21 03:06:40;;;;;;;;;;;3.80;99.90;;;;;;5049784;28;19909;-86
2022/09/21 03:09:06;;;;;;;;;;;3.80;99.90;;;;;;5042770;28;19912;-86
2022/09/21 03:11:32;;;;;;;;;;;3.80;99.90;;;;;;5037751;28;19909;-86
2022/09/21 03:13:58;;;;;;;;;;;3.80;99.90;;;;;;5043984;28;19931;-86
2022/09/21 03:16:24;;;;;;;;;;;3.80;99.90;;;;;;5047739;28;20369;-85
2022/09/21 03:18:49;;;;;;;;;;;3.80;99.90;;;;;;5044607;28;19998;-86
2022/09/21 03:21:15;;;;;;;;;;;3.90;99.90;;;;;;5047607;28;19921;-86
2022/09/21 03:23:40;;;;;;;;;;;3.90;99.90;;;;;;5047072;28;19908;-86
2022/09/21 03:26:07;;;;;;;;;;;3.90;99.90;;;;;;5046211;28;19909;-85
2022/09/21 03:28:32;;;;;;;;;;;3.80;99.90;;;;;;5045063;28;19993;-84
2022/09/21 03:30:58;;;;;;;;;;;3.80;99.90;;;;;;5047444;28;19948;-87
2022/09/21 03:33:26;;;;;;;;;;;3.90;99.90;;;;;;5043561;28;20011;-87
2022/09/21 03:35:52;;;;;;;;;;;3.80;99.90;;;;;;5041392;28;20292;-85
2022/09/21 03:38:17;;;;;;;;;;;3.80;99.90;;;;;;5048791;28;19913;-87
2022/09/21 03:40:45;;;;;;;;;;;3.80;99.90;;;;;;5033762;28;20281;-86
2022/09/21 03:43:10;;;;;;;;;;;3.70;99.90;;;;;;5038860;28;19923;-84
2022/09/21 03:45:36;;;;;;;;;;;3.70;99.90;;;;;;5044884;28;20011;-85
2022/09/21 03:48:03;;;;;;;;;;;3.70;99.90;;;;;;5047709;28;19963;-86
2022/09/21 03:50:28;;;;;;;;;;;3.70;99.90;;;;;;5041518;28;20068;-85
2022/09/21 03:52:55;;;;;;;;;;;3.70;99.90;;;;;;5053177;28;19920;-85
2022/09/21 03:55:21;;;;;;;;;;;3.70;99.90;;;;;;5039751;28;19909;-85
2022/09/21 03:57:46;;;;;;;;;;;3.60;99.90;;;;;;5026697;28;19921;-85
2022/09/21 04:00:12;;;;;;;;;;;3.60;99.90;;;;;;5052009;28;19921;-85
2022/09/21 04:02:41;;;;;;;;;;;3.60;99.90;;;;;;5045527;28;19939;-84
2022/09/21 04:05:07;;;;;;;;;;;3.40;99.90;;;;;;5049560;28;19915;-86
2022/09/21 04:07:33;;;;;;;;;;;3.40;99.90;;;;;;5051925;28;19915;-87
2022/09/21 04:09:59;;;;;;;;;;;3.40;99.90;;;;;;5043080;28;19921;-86
2022/09/21 04:12:25;;;;;;;;;;;3.30;99.90;;;;;;5048457;28;20422;-85
2022/09/21 04:14:50;;;;;;;;;;;3.30;99.90;;;;;;5043677;28;19924;-87
2022/09/21 04:17:16;;;;;;;;;;;3.30;99.90;;;;;;5050469;28;19967;-86
2022/09/21 04:19:43;;;;;;;;;;;3.30;99.90;;;;;;5050693;28;20016;-85
2022/09/21 04:22:10;;;;;;;;;;;3.30;99.90;;;;;;5043752;28;20384;-85
2022/09/21 04:24:38;;;;;;;;;;;3.30;99.90;;;;;;5050702;28;19919;-86
2022/09/21 04:27:03;;;;;;;;;;;3.20;99.90;;;;;;5024716;28;19913;-87
2022/09/21 04:29:29;;;;;;;;;;;3.20;99.90;;;;;;5049666;28;19923;-85
2022/09/21 04:31:55;;;;;;;;;;;3.20;99.90;;;;;;5059631;28;19917;-86
2022/09/21 04:34:21;;;;;;;;;;;3.10;99.90;;;;;;5049113;28;19912;-85
2022/09/21 04:36:46;;;;;;;;;;;3.00;99.90;;;;;;5052450;28;19970;-86
2022/09/21 04:39:12;;;;;;;;;;;3.00;99.90;;;;;;5048535;28;19913;-89
2022/09/21 04:41:37;;;;;;;;;;;3.10;99.90;;;;;;5042430;28;19920;-84
2022/09/21 04:44:03;;;;;;;;;;;3.00;99.90;;;;;;5040734;28;19913;-85
2022/09/21 04:46:29;;;;;;;;;;;3.10;99.90;;;;;;5028292;28;19921;-85
2022/09/21 04:48:54;;;;;;;;;;;3.10;99.90;;;;;;5048760;28;20392;-84
2022/09/21 04:51:20;;;;;;;;;;;3.10;99.90;;;;;;5037466;28;20637;-84
2022/09/21 04:53:45;;;;;;;;;;;3.20;99.90;;;;;;5040537;28;20286;-85
2022/09/21 04:56:12;;;;;;;;;;;3.30;99.90;;;;;;5038738;28;19999;-85
2022/09/21 04:58:38;;;;;;;;;;;3.30;99.90;;;;;;5038490;28;19909;-85
2022/09/21 05:01:05;;;;;;;;;;;3.30;99.90;;;;;;5036883;28;20304;-84
2022/09/21 05:03:30;;;;;;;;;;;3.30;99.90;;;;;;5033436;28;19913;-84
2022/09/21 05:05:56;;;;;;;;;;;3.30;99.90;;;;;;5039938;28;20406;-85
2022/09/21 05:10:01;;;;;;;;;;;3.30;99.90;;;;;;5043161;28;19990;-83
2022/09/21 05:11:12;;;;;;;;;;;3.40;99.90;;;;;;5051341;28;19924;-84
2022/09/21 05:13:38;;;;;;;;;;;3.20;99.90;;;;;;5048317;28;19913;-83
2022/09/21 05:16:04;;;;;;;;;;;3.20;99.90;;;;;;5043838;28;20012;-85
2022/09/21 05:18:29;;;;;;;;;;;3.30;99.90;;;;;;5052889;28;20303;-84
2022/09/21 05:20:56;;;;;;;;;;;3.30;99.90;;;;;;5034267;28;19917;-84
2022/09/21 05:23:25;;;;;;;;;;;3.40;99.90;;;;;;5033825;28;19917;-85
2022/09/21 05:25:50;;;;;;;;;;;3.50;99.90;;;;;;5036522;28;19963;-84
2022/09/21 05:28:16;;;;;;;;;;;3.50;99.90;;;;;;5047632;28;19920;-87
2022/09/21 05:30:43;;;;;;;;;;;3.60;99.90;;;;;;5039997;28;19924;-80
2022/09/21 05:33:09;;;;;;;;;;;3.50;99.90;;;;;;5038683;28;19912;-80
2022/09/21 05:35:38;;;;;;;;;;;3.60;99.90;;;;;;5034324;28;20364;-81
2022/09/21 05:38:06;;;;;;;;;;;3.60;99.90;;;;;;5033720;28;20436;-81
2022/09/21 05:40:32;;;;;;;;;;;3.60;99.90;;;;;;5031260;28;20311;-79
2022/09/21 05:42:58;;;;;;;;;;;3.70;99.90;;;;;;5034671;28;19921;-78
2022/09/21 05:45:24;;;;;;;;;;;3.80;99.90;;;;;;5037013;28;19913;-81
2022/09/21 05:47:59;;;;;;;;;;;3.80;99.90;;;;;;5043694;28;19917;-73
2022/09/21 05:50:43;;;;;;;;;;;3.80;99.90;;;;;;5049361;28;19919;-79
2022/09/21 05:53:15;;;;;;;;;;;3.90;99.90;;;;;;5047381;28;19912;-79
2022/09/21 05:55:53;;;;;;;;;;;3.80;99.90;;;;;;5039678;28;19909;-78
2022/09/21 05:58:21;;;;;;;;;;;3.90;99.90;;;;;;5041397;28;19916;-79
2022/09/21 06:01:01;;;;;;;;;;;3.90;99.90;;;;;;5044771;28;19927;-78
2022/09/21 06:03:28;;;;;;;;;;;3.90;99.90;;;;;;5045799;28;19958;-80
2022/09/21 06:05:54;;;;;;;;;;;4.00;99.90;;;;;;5046117;28;20429;-80
2022/09/21 06:08:20;;;;;;;;;;;4.00;99.90;;;;;;5050285;28;19913;-78
2022/09/21 06:10:46;;;;;;;;;;;4.10;99.90;;;;;;5049869;28;19912;-79
2022/09/21 06:13:11;;;;;;;;;;;4.20;99.90;;;;;;5046866;28;19951;-81
2022/09/21 06:15:37;;;;;;;;;;;4.20;99.90;;;;;;5036935;28;19913;-79
2022/09/21 06:18:04;;;;;;;;;;;4.30;99.90;;;;;;5039161;28;19955;-79
2022/09/21 06:20:30;;;;;;;;;;;4.30;99.90;;;;;;5045789;28;19917;-81
2022/09/21 06:23:01;;;;;;;;;;;4.30;99.90;;;;;;5047991;28;19926;-80
2022/09/21 06:25:27;;;;;;;;;;;4.30;99.90;;;;;;5041877;28;20007;-79
2022/09/21 06:27:52;;;;;;;;;;;4.40;99.90;;;;;;5044517;28;20063;-80
2022/09/21 06:30:18;;;;;;;;;;;4.40;99.90;;;;;;5044993;28;19913;-82
2022/09/21 06:32:43;;;;;;;;;;;4.50;99.90;;;;;;5044869;28;19913;-79
2022/09/21 06:35:09;;;;;;;;;;;4.40;99.90;;;;;;5041090;28;20704;-79
2022/09/21 06:37:34;;;;;;;;;;;4.50;99.90;;;;;;5037754;28;19916;-80
2022/09/21 06:40:00;;;;;;;;;;;4.60;99.90;;;;;;5035458;28;20125;-80
2022/09/21 06:42:26;;;;;;;;;;;4.60;99.90;;;;;;5043842;28;20055;-81
2022/09/21 06:44:51;;;;;;;;;;;4.80;99.90;;;;;;5041040;28;19917;-81
2022/09/21 06:47:17;;;;;;;;;;;4.90;99.90;;;;;;5033733;28;20573;-80
2022/09/21 06:49:42;;;;;;;;;;;5.00;99.90;;;;;;5036789;28;19928;-80
2022/09/21 06:52:08;;;;;;;;;;;5.00;99.90;;;;;;5039422;28;19913;-80
2022/09/21 06:54:33;;;;;;;;;;;5.10;99.90;;;;;;5034916;28;19924;-80
2022/09/21 06:56:59;;;;;;;;;;;5.40;99.90;;;;;;5046816;28;20404;-81
2022/09/21 06:59:24;;;;;;;;;;;5.50;99.90;;;;;;5046964;28;19913;-79
2022/09/21 07:01:50;;;;;;;;;;;5.60;99.90;;;;;;5032616;28;19956;-81
2022/09/21 07:04:15;;;;;;;;;;;5.80;99.90;;;;;;5042700;28;19920;-80
2022/09/21 07:06:41;;;;;;;;;;;5.80;99.90;;;;;;5036394;28;19920;-79
2022/09/21 07:09:06;;;;;;;;;;;5.90;99.90;;;;;;5044297;28;19940;-80
2022/09/21 07:11:31;;;;;;;;;;;6.00;99.90;;;;;;5042332;28;20431;-79
2022/09/21 07:13:57;;;;;;;;;;;6.10;99.90;;;;;;5042813;28;19923;-80
2022/09/21 07:16:23;;;;;;;;;;;6.30;99.90;;;;;;5041593;28;19919;-79
2022/09/21 07:18:48;;;;;;;;;;;6.40;99.90;;;;;;5044141;28;20154;-79
2022/09/21 07:21:15;;;;;;;;;;;6.50;99.90;;;;;;5043242;28;20000;-79
2022/09/21 07:23:40;;;;;;;;;;;6.60;99.90;;;;;;5043141;28;19931;-79
2022/09/21 07:26:07;;;;;;;;;;;6.80;99.90;;;;;;5037299;28;19917;-79
2022/09/21 07:28:33;;;;;;;;;;;6.80;99.90;;;;;;5040934;28;19921;-79
2022/09/21 07:31:05;;;;;;;;;;;7.10;99.90;;;;;;5032799;28;19916;-79
2022/09/21 07:33:32;;;;;;;;;;;7.00;99.90;;;;;;5045759;28;19919;-80
2022/09/21 07:35:57;;;;;;;;;;;6.70;99.90;;;;;;5039740;28;19908;-80
2022/09/21 07:38:24;;;;;;;;;;;6.50;99.90;;;;;;5035739;28;19920;-79
2022/09/21 07:40:49;;;;;;;;;;;6.60;99.90;;;;;;5047111;28;19920;-80
2022/09/21 07:43:15;;;;;;;;;;;6.80;99.90;;;;;;5044046;28;20277;-79
2022/09/21 07:45:41;;;;;;;;;;;6.90;99.90;;;;;;5042381;28;19952;-80
2022/09/21 07:48:07;;;;;;;;;;;6.90;99.90;;;;;;5033868;28;19920;-79
2022/09/21 07:50:33;;;;;;;;;;;7.00;99.90;;;;;;5037232;28;19956;-79
2022/09/21 07:52:59;;;;;;;;;;;7.20;99.90;;;;;;5039449;28;20335;-79
2022/09/21 07:55:25;;;;;;;;;;;7.50;99.90;;;;;;5046138;28;19920;-79
2022/09/21 08:00:36;;;;;;;;;;;7.60;99.90;;;;;;5043525;28;19975;-79
2022/09/21 08:03:02;;;;;;;;;;;8.00;99.90;;;;;;5048824;28;19913;-79
2022/09/21 08:05:27;;;;;;;;;;;8.40;99.90;;;;;;5038780;28;19917;-79
2022/09/21 08:07:56;;;;;;;;;;;8.60;99.90;;;;;;5034366;28;19987;-79
2022/09/21 08:10:22;;;;;;;;;;;8.20;99.90;;;;;;5046625;28;20396;-79
2022/09/21 08:12:48;;;;;;;;;;;8.20;99.90;;;;;;5036133;28;19951;-79
2022/09/21 08:15:14;;;;;;;;;;;8.30;99.90;;;;;;5047430;28;20007;-79
2022/09/21 08:17:39;;;;;;;;;;;8.30;99.90;;;;;;5044633;28;20292;-79
2022/09/21 08:20:05;;;;;;;;;;;8.50;99.90;;;;;;5046975;28;19919;-79
2022/09/21 08:22:31;;;;;;;;;;;9.00;99.90;;;;;;5047183;28;19917;-79
2022/09/21 08:24:57;;;;;;;;;;;8.80;99.90;;;;;;5044998;28;19996;-79
2022/09/21 08:27:24;;;;;;;;;;;8.60;99.90;;;;;;5035862;28;19970;-79
2022/09/21 08:29:50;;;;;;;;;;;8.60;99.90;;;;;;5042746;28;20001;-79
2022/09/21 08:32:15;;;;;;;;;;;9.00;99.90;;;;;;5041609;28;20019;-79
2022/09/21 08:34:41;;;;;;;;;;;9.30;99.90;;;;;;5052695;28;19923;-79
2022/09/21 08:37:06;;;;;;;;;;;9.60;99.90;;;;;;5044267;28;19934;-78
2022/09/21 08:39:32;;;;;;;;;;;9.90;99.90;;;;;;5048492;28;19919;-79
2022/09/21 08:42:20;;;;;;;;;;;9.80;99.90;;;;;;5047141;28;19979;-79
2022/09/21 08:44:47;;;;;;;;;;;10.00;99.90;;;;;;5029307;28;20003;-79
2022/09/21 08:47:12;;;;;;;;;;;10.20;99.90;;;;;;5050472;28;19935;-81
2022/09/21 08:49:40;;;;;;;;;;;10.00;99.90;;;;;;5038383;28;19949;-78
2022/09/21 08:52:10;;;;;;;;;;;10.20;99.90;;;;;;5045587;28;19963;-78
2022/09/21 08:54:47;;;;;;;;;;;10.40;99.90;;;;;;5038400;28;19956;-79
2022/09/21 08:57:14;;;;;;;;;;;10.70;99.90;;;;;;5045247;28;19905;-79
2022/09/21 08:59:46;;;;;;;;;;;10.80;99.90;;;;;;5047234;28;19921;-79
2022/09/21 09:02:11;;;;;;;;;;;10.90;99.90;;;;;;5044062;28;19947;-79
2022/09/21 09:04:43;;;;;;;;;;;11.10;99.90;;;;;;5048910;28;20336;-79
2022/09/21 09:07:12;;;;;;;;;;;10.80;99.90;;;;;;5046710;28;19944;-79
2022/09/21 09:09:56;;;;;;;;;;;10.70;99.90;;;;;;5038698;28;19913;-78
2022/09/21 09:12:34;;;;;;;;;;;10.60;99.90;;;;;;5044424;28;19913;-79
2022/09/21 09:15:02;;;;;;;;;;;10.90;99.90;;;;;;5048684;28;20019;-79
2022/09/21 09:17:27;;;;;;;;;;;10.90;99.90;;;;;;5046732;28;19915;-79
2022/09/21 09:19:56;;;;;;;;;;;11.50;99.90;;;;;;5032919;28;19909;-79
2022/09/21 09:22:31;;;;;;;;;;;11.70;99.90;;;;;;5045482;28;19912;-79
2022/09/21 09:25:02;;;;;;;;;;;11.80;99.90;;;;;;5040167;28;19920;-80
2022/09/21 09:27:31;;;;;;;;;;;12.20;99.90;;;;;;5041103;28;19916;-79
2022/09/21 09:30:02;;;;;;;;;;;12.40;99.90;;;;;;5040670;28;19909;-79
2022/09/21 09:32:35;;;;;;;;;;;12.30;99.10;;;;;;5049774;28;20292;-80
2022/09/21 09:35:16;;;;;;;;;;;11.70;98.50;;;;;;5044467;28;19913;-79
2022/09/21 09:37:41;;;;;;;;;;;11.30;99.60;;;;;;5042214;28;19915;-79
2022/09/21 09:40:07;;;;;;;;;;;11.90;98.70;;;;;;5047882;28;19912;-79
2022/09/21 09:43:00;;;;;;;;;;;12.30;98.00;;;;;;5045241;28;20645;-79
2022/09/21 09:45:26;;;;;;;;;;;12.70;92.50;;;;;;5036303;28;20307;-79
2022/09/21 09:48:04;;;;;;;;;;;12.10;95.50;;;;;;5048674;28;19909;-79
2022/09/21 09:50:33;;;;;;;;;;;12.20;96.00;;;;;;5030698;28;20300;-75
2022/09/21 09:53:04;;;;;;;;;;;12.90;95.00;;;;;;5037860;28;19960;-76
2022/09/21 09:55:37;;;;;;;;;;;12.80;91.40;;;;;;5048131;28;19912;-76
2022/09/21 09:58:03;;;;;;;;;;;12.70;91.00;;;;;;5046931;28;19913;-76
2022/09/21 10:00:29;;;;;;;;;;;12.70;91.60;;;;;;5035210;28;19925;-76
2022/09/21 10:02:58;;;;;;;;;;;12.50;90.40;;;;;;5038316;28;19920;-76
2022/09/21 10:05:30;;;;;;;;;;;12.60;91.30;;;;;;5043399;28;19916;-76
2022/09/21 10:07:56;;;;;;;;;;;12.00;92.40;;;;;;5037294;28;20011;-76
2022/09/21 10:10:22;;;;;;;;;;;12.20;93.30;;;;;;5045656;28;20651;-76
2022/09/21 10:12:48;;;;;;;;;;;13.10;92.20;;;;;;5045488;28;20016;-76
2022/09/21 10:15:15;;;;;;;;;;;13.40;87.40;;;;;;5041619;28;19940;-76
2022/09/21 10:17:41;;;;;;;;;;;13.40;90.00;;;;;;5047693;28;19924;-75
2022/09/21 10:20:14;;;;;;;;;;;13.70;89.90;;;;;;5048232;28;19913;-77
2022/09/21 10:22:41;;;;;;;;;;;13.50;86.60;;;;;;5039519;28;19916;-77
2022/09/21 10:25:14;;;;;;;;;;;13.60;82.50;;;;;;5034381;28;19966;-77
2022/09/21 10:27:42;;;;;;;;;;;14.00;86.30;;;;;;5034040;28;19924;-77
2022/09/21 10:30:27;;;;;;;;;;;14.10;83.60;;;;;;5044526;28;19917;-77
2022/09/21 10:32:54;;;;;;;;;;;14.30;79.00;;;;;;5039273;28;19921;-77
2022/09/21 10:35:20;;;;;;;;;;;14.40;82.80;;;;;;5045087;28;20019;-77
2022/09/21 10:37:53;;;;;;;;;;;14.90;82.60;;;;;;5045501;28;20023;-76
2022/09/21 10:40:18;;;;;;;;;;;14.50;73.30;;;;;;5045667;28;19920;-80
2022/09/21 10:42:45;;;;;;;;;;;14.90;75.80;;;;;;5044958;28;19925;-80
2022/09/21 10:45:15;;;;;;;;;;;15.30;73.50;;;;;;5047972;28;20007;-80
2022/09/21 10:47:45;;;;;;;;;;;15.40;71.60;;;;;;5046721;28;19966;-80
2022/09/21 10:50:20;;;;;;;;;;;15.70;68.80;;;;;;5044301;28;19913;-79
2022/09/21 10:52:46;;;;;;;;;;;16.00;72.80;;;;;;5045511;28;19995;-80
2022/09/21 10:55:20;;;;;;;;;;;16.20;65.20;;;;;;5045095;28;20008;-80
2022/09/21 10:57:46;;;;;;;;;;;16.20;69.90;;;;;;5040598;28;20019;-80
2022/09/21 11:00:24;;;;;;;;;;;16.20;65.70;;;;;;5045089;28;19921;-85
2022/09/21 11:02:50;;;;;;;;;;;16.70;67.20;;;;;;5023785;28;19960;-88
2022/09/21 11:05:21;;;;;;;;;;;16.40;67.30;;;;;;5013966;28;19960;-87
2022/09/21 11:07:57;;;;;;;;;;;17.40;63.10;;;;;;5015820;28;19921;-87
2022/09/21 11:10:29;;;;;;;;;;;17.20;58.30;;;;;;5011442;28;19952;-89
2022/09/21 11:12:59;;;;;;;;;;;17.00;63.90;;;;;;5009497;28;19919;-87
2022/09/21 11:15:44;;;;;;;;;;;16.80;62.20;;;;;;5018970;28;19929;-87
2022/09/21 11:18:15;;;;;;;;;;;16.80;64.70;;;;;;5013454;28;19956;-89
2022/09/21 11:20:45;;;;;;;;;;;17.30;58.80;;;;;;5017490;28;20007;-86
2022/09/21 11:23:29;;;;;;;;;;;16.90;64.50;;;;;;5019744;28;20027;-87
2022/09/21 11:26:26;;;;;;;;;;;16.80;62.60;;;;;;5011903;28;19917;-82
2022/09/21 11:28:58;;;;;;;;;;;17.00;62.10;;;;;;4997686;28;19971;-86
2022/09/21 11:31:33;;;;;;;;;;;17.50;59.20;;;;;;5021800;28;19913;-86
2022/09/21 11:34:34;;;;;;;;;;;17.90;58.20;;;;;;5040031;28;20003;-87
2022/09/21 11:37:18;;;;;;;;;;;18.60;58.20;;;;;;4986232;28;19992;-87
2022/09/21 11:39:45;;;;;;;;;;;19.00;52.10;;;;;;5033505;28;20392;-89
2022/09/21 11:42:23;;;;;;;;;;;18.60;50.50;;;;;;5045594;28;19917;-88
2022/09/21 11:44:54;;;;;;;;;;;18.00;53.00;;;;;;5029820;28;20392;-87
2022/09/21 11:47:58;;;;;;;;;;;17.80;52.30;;;;;;5033174;28;19915;-69
2022/09/21 11:50:44;;;;;;;;;;;17.80;50.90;;;;;;5018699;28;20396;-87
2022/09/21 11:53:28;;;;;;;;;;;18.30;52.20;;;;;;5023264;28;20369;-87
2022/09/21 11:56:08;;;;;;;;;;;19.30;49.60;;;;;;5032835;28;19909;-86
2022/09/21 11:58:36;;;;;;;;;;;18.00;50.30;;;;;;5044233;28;19935;-86
2022/09/21 12:01:04;;;;;;;;;;;16.90;56.20;;;;;;5041412;28;19921;-83
2022/09/21 12:03:54;;;;;;;;;;;17.30;53.50;;;;;;5037682;28;20299;-83
2022/09/21 12:06:31;;;;;;;;;;;18.00;53.00;;;;;;5033287;28;19968;-81
2022/09/21 12:09:01;;;;;;;;;;;17.90;54.00;;;;;;5041436;28;19912;-83
2022/09/21 12:11:30;;;;;;;;;;;18.00;51.10;;;;;;5051116;28;19915;-84
2022/09/21 12:14:01;;;;;;;;;;;18.60;49.70;;;;;;5042951;28;20034;-84
2022/09/21 12:16:45;;;;;;;;;;;16.60;52.80;;;;;;5042977;28;20357;-84
2022/09/21 12:19:14;;;;;;;;;;;17.70;50.10;;;;;;5045645;28;19905;-81
2022/09/21 12:21:42;;;;;;;;;;;18.60;48.00;;;;;;5048436;28;19921;-83
2022/09/21 12:24:21;;;;;;;;;;;19.40;45.30;;;;;;5034386;28;19921;-82
2022/09/21 12:26:49;;;;;;;;;;;19.20;46.90;;;;;;5048049;28;19917;-84
2022/09/21 12:29:20;;;;;;;;;;;19.70;43.40;;;;;;5043713;28;20317;-84
2022/09/21 12:31:52;;;;;;;;;;;18.80;47.60;;;;;;5039025;28;20643;-87
2022/09/21 12:34:20;;;;;;;;;;;20.20;44.00;;;;;;5050942;28;20011;-84
2022/09/21 12:36:51;;;;;;;;;;;20.10;43.20;;;;;;5037928;28;19917;-84
2022/09/21 12:39:19;;;;;;;;;;;18.70;41.70;;;;;;5050256;28;20043;-84
2022/09/21 12:42:14;;;;;;;;;;;18.40;48.80;;;;;;5047865;28;19978;-84
2022/09/21 12:44:50;;;;;;;;;;;17.30;47.70;;;;;;5033712;28;19913;-85
2022/09/21 12:47:26;;;;;;;;;;;19.00;42.40;;;;;;5045528;28;19913;-84
2022/09/21 12:49:55;;;;;;;;;;;18.70;42.10;;;;;;5041901;28;20560;-84
2022/09/21 12:52:22;;;;;;;;;;;18.50;45.40;;;;;;5039764;28;20003;-84
2022/09/21 12:54:55;;;;;;;;;;;19.90;44.50;;;;;;5047880;28;19916;-84
2022/09/21 12:57:42;;;;;;;;;;;20.20;41.10;;;;;;5045630;28;20401;-84
2022/09/21 13:00:19;;;;;;;;;;;20.70;38.50;;;;;;5041172;28;19913;-84
2022/09/21 13:02:47;;;;;;;;;;;20.30;36.20;;;;;;5036099;28;19920;-84
2022/09/21 13:05:32;;;;;;;;;;;20.60;35.50;;;;;;5045027;28;20548;-84
2022/09/21 13:08:06;;;;;;;;;;;20.50;39.30;;;;;;5050926;28;19913;-83
2022/09/21 13:10:53;;;;;;;;;;;21.20;34.90;;;;;;5046360;28;20372;-84
2022/09/21 13:13:19;;;;;;;;;;;20.60;32.50;;;;;;5049191;28;20030;-84
2022/09/21 13:15:46;;;;;;;;;;;22.10;35.30;;;;;;5039786;28;20360;-84
2022/09/21 13:18:33;;;;;;;;;;;21.60;35.00;;;;;;5049109;28;19917;-84
2022/09/21 13:21:00;;;;;;;;;;;21.30;33.80;;;;;;5042129;28;19979;-84
2022/09/21 13:23:39;;;;;;;;;;;22.80;32.30;;;;;;5049779;28;19966;-84
2022/09/21 13:26:07;;;;;;;;;;;22.20;32.70;;;;;;5049318;28;19924;-81
2022/09/21 13:28:40;;;;;;;;;;;20.70;34.90;;;;;;5033438;28;20303;-84
2022/09/21 13:31:18;;;;;;;;;;;21.30;34.60;;;;;;5045496;28;19966;-85
2022/09/21 13:34:02;;;;;;;;;;;22.90;33.60;;;;;;5048334;28;19936;-83
2022/09/21 13:36:29;;;;;;;;;;;20.90;35.10;;;;;;5047636;28;19953;-84
2022/09/21 13:39:04;;;;;;;;;;;21.70;35.10;;;;;;5041447;28;19913;-84
2022/09/21 13:41:30;;;;;;;;;;;20.90;36.50;;;;;;5045298;28;19928;-85
2022/09/21 13:43:58;;;;;;;;;;;21.80;33.60;;;;;;5044873;28;19913;-84
2022/09/21 13:46:47;;;;;;;;;;;21.10;34.80;;;;;;5044984;28;19913;-85
2022/09/21 13:49:14;;;;;;;;;;;22.50;33.20;;;;;;5035086;28;19908;-80
2022/09/21 13:51:52;;;;;;;;;;;21.40;34.70;;;;;;5041872;28;19917;-89
2022/09/21 13:54:19;;;;;;;;;;;22.40;31.70;;;;;;5033438;28;19976;-86
2022/09/21 13:56:45;;;;;;;;;;;22.40;32.60;;;;;;5031962;28;20010;-83
2022/09/21 13:59:29;;;;;;;;;;;21.50;33.50;;;;;;5043020;28;19982;-86
2022/09/21 14:01:56;;;;;;;;;;;22.80;31.90;;;;;;5048860;28;19939;-88
2022/09/21 14:04:21;;;;;;;;;;;22.40;30.70;;;;;;5035263;28;19913;-85
2022/09/21 14:06:48;;;;;;;;;;;18.90;36.50;;;;;;5041622;28;19914;-85
2022/09/21 14:09:25;;;;;;;;;;;20.90;34.80;;;;;;5044453;28;19913;-87
2022/09/21 14:11:56;;;;;;;;;;;22.60;32.00;;;;;;5043598;28;20484;-84
2022/09/21 14:14:38;;;;;;;;;;;22.50;31.50;;;;;;5044733;28;19920;-88
2022/09/21 14:17:05;;;;;;;;;;;22.40;31.30;;;;;;5043053;28;20384;-88
2022/09/21 14:19:32;;;;;;;;;;;22.50;30.30;;;;;;5041912;28;19991;-88
2022/09/21 14:24:37;;;;;;;;;;;22.60;29.80;;;;;;5043347;28;19908;-89
2022/09/21 14:27:03;;;;;;;;;;;23.90;27.90;;;;;;5029178;28;19948;-87
2022/09/21 14:29:58;;;;;;;;;;;22.40;29.80;;;;;;5034279;28;19909;-80
2022/09/21 14:32:25;;;;;;;;;;;22.10;30.00;;;;;;5040306;28;20382;-84
2022/09/21 14:34:55;;;;;;;;;;;22.40;30.90;;;;;;5039220;28;19916;-86
2022/09/21 14:37:31;;;;;;;;;;;23.40;29.70;;;;;;5038116;28;19913;-85
2022/09/21 14:39:57;;;;;;;;;;;20.20;32.70;;;;;;5037276;28;20026;-86
2022/09/21 14:42:27;;;;;;;;;;;20.70;32.60;;;;;;5040611;28;20655;-86
2022/09/21 14:44:54;;;;;;;;;;;20.70;32.30;;;;;;5017377;28;19913;-87